EW1373 Weather Reports


Display with metric or nautical units.
time (UTC)temp
F
wind
direction
speed
MPH
gust
MPH
rain 1hr
in
rain 24hr
in
rain mn
in
humidity
%
barometer
mb
20181117103136 9 0 10.0 19.0 0.00 0.00 0.00 36 1028.0
20181117102136 9 0 11.0 19.0 0.00 0.00 0.00 36 1028.0
20181117101136 9 0 10.0 22.0 0.00 0.00 0.00 36 1027.9
20181117100136 9 0 10.0 20.0 0.00 0.00 0.00 36 1027.9
20181117095136 9 0 10.0 19.0 0.00 0.00 0.00 36 1027.9
20181117094136 9 0 10.0 20.0 0.00 0.00 0.00 36 1027.9
20181117093136 9 0 9.0 19.0 0.00 0.00 0.00 36 1027.8
20181117092138 9 0 9.0 16.0 0.00 0.00 0.00 36 1027.8
20181117091138 10 0 11.0 18.0 0.00 0.00 0.00 36 1027.8
20181117090138 10 0 11.0 21.0 0.00 0.00 0.00 36 1027.8
20181117085138 10 0 10.0 19.0 0.00 0.00 0.00 36 1027.8
20181117084138 11 0 9.0 20.0 0.00 0.00 0.00 36 1027.8
20181117083138 11 0 8.0 14.0 0.00 0.00 0.00 36 1027.5
20181117082138 11 0 10.0 20.0 0.00 0.00 0.00 36 1027.5
20181117081138 12 0 8.0 15.0 0.00 0.00 0.00 36 1027.5
20181117080138 12 0 9.0 18.0 0.00 0.00 0.00 36 1027.5
20181117074138 12 0 9.0 18.0 0.00 0.00 0.00 36 1027.4
20181117073138 12 0 10.0 20.0 0.00 0.00 0.00 36 1027.4
20181117072138 12 0 9.0 18.0 0.00 0.00 0.00 36 1027.4
20181117071139 13 0 11.0 19.0 0.00 0.00 0.00 36 1027.4
20181117070138 13 0 11.0 21.0 0.00 0.00 0.00 36 1027.4
20181117065138 13 0 9.0 20.0 0.00 0.00 0.00 36 1027.4
20181117064138 13 0 10.0 20.0 0.00 0.00 0.00 36 1027.4
20181117063138 13 337 9.0 18.0 0.00 0.00 0.00 36 1027.6
20181117062138 13 0 9.0 19.0 0.00 0.00 0.00 36 1027.6
20181117061140 13 0 9.0 20.0 0.00 0.00 0.00 36 1027.7
20181117060140 13 0 12.0 21.0 0.00 0.00 0.00 36 1027.7
20181117055140 14 0 14.0 26.0 0.00 0.00 0.00 36 1027.7
20181117054140 14 0 10.0 19.0 0.00 0.00 0.00 36 1027.6
20181117053140 14 0 11.0 24.0 0.00 0.00 0.00 36 1027.5
20181117052140 14 0 10.0 20.0 0.00 0.00 0.00 36 1027.5
20181117051139 14 0 11.0 19.0 0.00 0.00 0.00 36 1027.5
20181117050139 14 0 11.0 20.0 0.00 0.00 0.00 36 1027.6
20181117045139 14 0 10.0 20.0 0.00 0.00 0.00 36 1027.6
20181117044245 13 0 13.0 28.0 0.00 0.00 0.00 36 1027.6
20181117043141 13 0 13.0 25.0 0.00 0.00 0.00 36 1027.6
20181117042141 14 0 14.0 29.0 0.00 0.00 0.00 36 1027.6
20181117041141 14 0 10.0 19.0 0.00 0.00 0.00 36 1027.6
20181117040141 13 0 13.0 26.0 0.00 0.00 0.00 36 1027.6
20181117035140 14 0 12.0 26.0 0.00 0.00 0.00 36 1027.6
20181117034140 13 337 8.0 16.0 0.00 0.00 0.00 36 1027.6
20181117033141 13 0 10.0 20.0 0.00 0.00 0.00 36 1027.5
20181117032140 13 0 10.0 21.0 0.00 0.00 0.00 36 1027.5
20181117031141 13 0 8.0 18.0 0.00 0.00 0.00 36 1027.4
20181117030141 13 0 11.0 26.0 0.00 0.00 0.00 37 1027.3
20181117025140 13 337 10.0 19.0 0.00 0.00 0.00 37 1027.2
20181117024140 13 0 10.0 18.0 0.00 0.00 0.00 37 1027.2
20181117023140 13 0 10.0 21.0 0.00 0.00 0.00 37 1027.1
20181117022141 13 0 10.0 21.0 0.00 0.00 0.00 37 1027.1
20181117021140 13 0 10.0 19.0 0.00 0.00 0.00 37 1027.0
20181117020140 13 337 9.0 15.0 0.00 0.00 0.00 37 1027.0
20181117015140 12 337 8.0 13.0 0.00 0.00 0.00 37 1027.0
20181117014140 12 337 8.0 15.0 0.00 0.00 0.00 37 1027.0
20181117013342 12 337 10.0 15.0 0.00 0.00 0.00 37 1026.7
20181117012143 12 337 10.0 16.0 0.00 0.00 0.00 37 1026.7
20181117011143 12 337 9.0 16.0 0.00 0.00 0.00 37 1026.8
20181117010142 12 337 9.0 14.0 0.00 0.00 0.00 37 1026.4
20181117005142 13 337 10.0 15.0 0.00 0.00 0.00 37 1026.4
20181117004142 13 337 9.0 19.0 0.00 0.00 0.00 37 1026.3
20181117003142 13 337 10.0 16.0 0.00 0.00 0.00 37 1026.3
20181117002143 13 337 8.0 14.0 0.00 0.00 0.00 37 1026.3
20181117001142 13 315 6.0 12.0 0.00 0.00 0.00 37 1026.3
20181117000142 13 337 6.0 12.0 0.00 0.00 0.00 37 1026.4
20181116235142 14 337 5.0 10.0 0.00 0.00 0.00 37 1026.4
20181116234142 14 315 5.0 13.0 0.00 0.00 0.00 37 1026.2
20181116233143 14 0 3.0 9.0 0.00 0.00 0.00 37 1026.0
20181116232142 15 337 3.0 8.0 0.00 0.00 0.00 37 1026.1
20181116231142 15 315 2.0 8.0 0.00 0.00 0.00 37 1025.9
20181116230142 15 337 2.0 9.0 0.00 0.00 0.00 37 1025.8
20181116225142 16 337 1.0 6.0 0.00 0.00 0.00 37 1025.8
20181116224142 16 337 1.0 8.0 0.00 0.00 0.00 37 1025.6
20181116223142 16 337 1.0 6.0 0.00 0.00 0.00 37 1025.2
20181116221144 17 337 2.0 8.0 0.00 0.00 0.00 37 1025.1
20181116220144 17 337 1.0 6.0 0.00 0.00 0.00 38 1024.9
20181116215144 17 337 3.0 9.0 0.00 0.00 0.00 37 1024.9
20181116214144 17 315 1.0 5.0 0.00 0.00 0.00 38 1024.7
20181116213145 17 292 1.0 5.0 0.00 0.00 0.00 38 1024.5
20181116212144 17 292 1.0 7.0 0.00 0.00 0.00 38 1024.5
20181116211144 17 337 1.0 6.0 0.00 0.00 0.00 38 1024.4
20181116210144 17 337 2.0 8.0 0.00 0.00 0.00 38 1024.0
20181116205144 18 337 3.0 11.0 0.00 0.00 0.00 38 1024.0
20181116204144 18 315 2.0 10.0 0.00 0.00 0.00 38 1024.0
20181116203144 18 337 6.0 11.0 0.00 0.00 0.00 38 1023.2
20181116202144 18 337 7.0 11.0 0.00 0.00 0.00 38 1023.3
20181116201144 18 337 7.0 13.0 0.00 0.00 0.00 38 1023.1
20181116200144 19 337 6.0 13.0 0.00 0.00 0.00 38 1023.1
20181116195144 19 315 6.0 11.0 0.00 0.00 0.00 38 1023.1
20181116194144 18 315 6.0 13.0 0.00 0.00 0.00 38 1023.0
20181116193144 19 337 6.0 11.0 0.00 0.00 0.00 38 1022.9
20181116192144 19 337 7.0 16.0 0.00 0.00 0.00 38 1022.9
20181116191324 19 315 7.0 14.0 0.00 0.00 0.00 38 1022.7
20181116190144 19 337 7.0 15.0 0.00 0.00 0.00 38 1022.5
20181116185144 19 337 8.0 14.0 0.00 0.00 0.00 38 1022.5
20181116184146 19 337 10.0 15.0 0.00 0.00 0.00 38 1022.4
20181116183146 19 337 10.0 16.0 0.00 0.00 0.00 38 1022.0
20181116182146 19 337 10.0 20.0 0.00 0.00 0.00 38 1022.0
20181116181147 19 337 10.0 18.0 0.00 0.00 0.00 38 1022.0
20181116180146 19 337 9.0 14.0 0.00 0.00 0.00 38 1021.9
20181116175146 19 337 9.0 19.0 0.00 0.00 0.00 38 1021.8
20181116174146 20 315 9.0 13.0 0.00 0.00 0.00 38 1021.7
20181116173146 20 337 9.0 16.0 0.00 0.00 0.00 38 1021.5
20181116172146 20 337 10.0 19.0 0.00 0.00 0.00 38 1021.5
20181116171146 20 337 10.0 20.0 0.00 0.00 0.00 38 1021.2
20181116170145 20 337 11.0 20.0 0.00 0.00 0.00 38 1020.8
20181116165145 20 337 13.0 23.0 0.00 0.00 0.00 38 1020.8
20181116164146 21 337 13.0 27.0 0.00 0.00 0.00 38 1020.3
20181116163146 21 337 12.0 26.0 0.00 0.00 0.00 38 1020.3
20181116162146 21 337 11.0 22.0 0.00 0.00 0.00 39 1020.3
20181116161146 21 337 11.0 20.0 0.00 0.00 0.00 39 1020.1
20181116160317 21 337 11.0 20.0 0.00 0.00 0.00 39 1019.8
20181116155145 21 337 10.0 16.0 0.00 0.00 0.00 39 1019.8
20181116154145 21 337 11.0 20.0 0.00 0.00 0.00 39 1019.7
20181116153147 21 315 10.0 22.0 0.00 0.00 0.00 38 1019.8
20181116152148 21 315 9.0 19.0 0.00 0.00 0.00 39 1019.8
20181116151147 21 337 9.0 21.0 0.00 0.00 0.00 38 1019.7
20181116150147 21 0 10.0 23.0 0.00 0.00 0.00 39 1019.7
20181116145148 21 0 12.0 22.0 0.00 0.00 0.00 39 1019.7
20181116144148 21 0 11.0 24.0 0.00 0.00 0.00 39 1019.7
20181116143147 21 0 11.0 20.0 0.00 0.00 0.00 39 1019.6
20181116142147 22 0 11.0 22.0 0.00 0.00 0.00 39 1019.6
20181116141147 22 0 9.0 19.0 0.00 0.00 0.00 39 1019.5
20181116140147 22 0 11.0 23.0 0.00 0.00 0.00 39 1019.3
20181116135147 23 0 11.0 22.0 0.00 0.00 0.00 38 1019.3
20181116134147 24 0 9.0 19.0 0.00 0.00 0.00 37 1019.1
20181116133147 24 0 8.0 18.0 0.00 0.00 0.00 37 1018.9
20181116132147 24 0 8.0 15.0 0.00 0.00 0.00 37 1018.9
20181116131148 23 0 10.0 15.0 0.00 0.00 0.00 37 1018.8
20181116130147 22 0 8.0 13.0 0.00 0.00 0.00 37 1018.8
20181116125327 22 22 7.0 12.0 0.00 0.00 0.00 37 1018.8
20181116124147 22 22 8.0 15.0 0.00 0.00 0.00 37 1018.5
20181116123147 21 22 8.0 12.0 0.00 0.00 0.00 37 1018.3
20181116122149 22 22 7.0 14.0 0.00 0.00 0.00 37 1018.4
20181116121150 22 22 7.0 13.0 0.00 0.00 0.00 37 1018.5
20181116120149 22 22 8.0 14.0 0.00 0.00 0.00 37 1018.3
20181116115149 22 22 9.0 16.0 0.00 0.00 0.00 37 1018.3
20181116114149 22 22 8.0 15.0 0.00 0.00 0.00 37 1018.3
20181116113149 22 22 9.0 14.0 0.00 0.00 0.00 37 1018.1
20181116112149 22 22 9.0 16.0 0.00 0.00 0.00 37 1018.1
20181116111149 22 22 7.0 13.0 0.00 0.00 0.00 37 1018.1
20181116110149 23 22 8.0 14.0 0.00 0.00 0.00 37 1018.0
20181116105149 23 22 8.0 13.0 0.00 0.00 0.00 37 1017.9
20181116104149 23 22 8.0 14.0 0.00 0.00 0.00 37 1017.9